Time;durP1;ratioP1;P1;durP2;ratioP2;P2;SDS_P1;SDS_P2;PMS_P1;PMS_P2;Temp;Humidity;BMP_temperature;BMP_pressure;BME280_temperature;BME280_humidity;BME280_pressure;Samples;Min_cycle;Max_cycle;Signal;HPM_P1;HPM_P2
2022/08/09 00:50:10;;;;;;;4.97;2.85;;;21.20;62.10;;;;;;4789529;29;20091;-77
2022/08/09 00:55:58;;;;;;;3.20;2.92;;;21.10;61.90;;;;;;4818617;29;20666;-80
2022/08/09 00:58:24;;;;;;;3.22;2.88;;;21.10;61.80;;;;;;4818891;29;20417;-80
2022/08/09 01:00:53;;;;;;;4.05;3.45;;;21.10;61.90;;;;;;4814365;29;20094;-80
2022/08/09 01:03:42;;;;;;;2.90;2.70;;;21.10;62.00;;;;;;4805446;29;20438;-78
2022/08/09 01:06:18;;;;;;;4.03;3.03;;;21.10;62.10;;;;;;4817396;29;20038;-81
2022/08/09 01:09:12;;;;;;;3.70;3.45;;;21.00;62.10;;;;;;4814804;29;20584;-82
2022/08/09 01:12:16;;;;;;;4.20;3.80;;;21.00;62.20;;;;;;4814589;29;20032;-82
2022/08/09 01:14:58;;;;;;;3.20;2.88;;;21.00;62.20;;;;;;4803622;29;20303;-81
2022/08/09 01:17:32;;;;;;;3.92;3.28;;;21.00;62.10;;;;;;4811309;29;20042;-81
2022/08/09 01:20:07;;;;;;;4.05;2.92;;;21.00;62.10;;;;;;4814538;29;20038;-81
2022/08/09 01:23:02;;;;;;;4.15;3.08;;;21.00;62.20;;;;;;4814800;29;20035;-81
2022/08/09 01:25:28;;;;;;;3.22;2.88;;;20.90;62.10;;;;;;4798238;29;20034;-81
2022/08/09 01:27:55;;;;;;;3.30;3.00;;;20.90;62.00;;;;;;4811983;29;20482;-81
2022/08/09 01:30:24;;;;;;;4.65;3.08;;;20.90;62.10;;;;;;4814513;29;20075;-81
2022/08/09 01:32:55;;;;;;;3.10;2.80;;;20.80;62.00;;;;;;4806839;29;20072;-81
2022/08/09 01:35:28;;;;;;;3.35;3.03;;;20.80;62.00;;;;;;4814558;29;20042;-81
2022/08/09 01:37:57;;;;;;;4.45;2.80;;;20.80;62.10;;;;;;4814413;29;20038;-82
2022/08/09 01:40:26;;;;;;;4.10;3.10;;;20.80;62.10;;;;;;4814669;29;20546;-84
2022/08/09 01:42:54;;;;;;;5.10;3.30;;;20.70;62.00;;;;;;4816270;29;20026;-84
2022/08/09 01:45:21;;;;;;;4.32;3.20;;;20.70;62.00;;;;;;4816950;29;20039;-83
2022/08/09 01:47:48;;;;;;;3.63;3.20;;;20.70;62.10;;;;;;4868475;24;20052;-81
2022/08/09 01:50:16;;;;;;;2.70;2.50;;;20.60;62.00;;;;;;4824045;29;20047;-81
2022/08/09 01:52:42;;;;;;;4.25;3.20;;;20.60;62.10;;;;;;4809306;29;20059;-83
2022/08/09 01:55:09;;;;;;;3.15;2.83;;;20.50;62.00;;;;;;4841693;29;20070;-82
2022/08/09 01:57:43;;;;;;;3.20;2.90;;;20.50;62.50;;;;;;4811772;29;20057;-82
2022/08/09 02:00:12;;;;;;;4.25;3.85;;;20.50;62.10;;;;;;4856816;29;20612;-80
2022/08/09 02:02:48;;;;;;;4.25;3.47;;;20.40;61.90;;;;;;4840441;29;20033;-82
2022/08/09 02:05:18;;;;;;;3.60;2.85;;;20.40;62.10;;;;;;4820247;29;20038;-82
2022/08/09 02:07:50;;;;;;;4.07;3.00;;;20.40;62.00;;;;;;4826094;29;20568;-82
2022/08/09 02:10:21;;;;;;;4.05;2.90;;;20.30;61.90;;;;;;4836680;29;20441;-82
2022/08/09 02:12:49;;;;;;;5.53;3.00;;;20.30;62.00;;;;;;4837375;29;20084;-82
2022/08/09 02:15:18;;;;;;;3.13;2.85;;;20.20;61.80;;;;;;4807436;29;20057;-81
2022/08/09 02:17:48;;;;;;;6.15;3.08;;;20.20;61.90;;;;;;4852652;29;20044;-82
2022/08/09 02:20:15;;;;;;;3.10;2.75;;;20.20;61.90;;;;;;4832660;29;20037;-80
2022/08/09 02:22:49;;;;;;;3.35;3.05;;;20.20;62.10;;;;;;4824952;29;20037;-80
2022/08/09 02:25:20;;;;;;;3.47;2.80;;;20.10;62.00;;;;;;4838808;29;20113;-80
2022/08/09 02:27:53;;;;;;;3.75;2.90;;;20.10;62.00;;;;;;4846288;29;20025;-81
2022/08/09 02:30:19;;;;;;;4.97;3.15;;;20.10;62.10;;;;;;4864832;29;20033;-81
2022/08/09 02:32:47;;;;;;;4.05;3.63;;;20.10;62.00;;;;;;4827957;29;20036;-81
2022/08/09 02:35:21;;;;;;;3.72;2.90;;;20.10;62.10;;;;;;4844353;29;20053;-80
2022/08/09 02:37:53;;;;;;;4.63;3.50;;;20.00;62.00;;;;;;4857455;29;20024;-81
2022/08/09 02:40:21;;;;;;;5.77;3.50;;;20.00;62.10;;;;;;4856265;29;20206;-81
2022/08/09 02:42:50;;;;;;;3.97;2.85;;;20.00;62.00;;;;;;4856994;29;20037;-82
2022/08/09 02:45:31;;;;;;;5.20;3.47;;;20.00;62.10;;;;;;4822604;29;20041;-83
2022/08/09 02:48:02;;;;;;;3.35;3.05;;;19.90;62.10;;;;;;4853466;29;20056;-81
2022/08/09 02:50:41;;;;;;;3.28;2.90;;;19.90;62.00;;;;;;4856970;29;20096;-80
2022/08/09 02:53:12;;;;;;;4.35;2.50;;;19.90;62.20;;;;;;4839848;29;20675;-82
2022/08/09 02:55:43;;;;;;;3.15;2.78;;;19.90;62.60;;;;;;4860115;29;20445;-81
2022/08/09 02:58:10;;;;;;;4.68;3.53;;;19.80;62.00;;;;;;4824696;29;20056;-81
2022/08/09 03:00:38;;;;;;;5.53;3.00;;;19.80;62.10;;;;;;4830129;29;20033;-80
2022/08/09 03:03:06;;;;;;;3.53;2.40;;;19.80;62.20;;;;;;4855530;29;20030;-80
2022/08/09 03:05:32;;;;;;;3.33;2.58;;;19.70;62.00;;;;;;4838452;29;20030;-82
2022/08/09 03:08:00;;;;;;;3.22;2.75;;;19.70;62.10;;;;;;4842362;29;20034;-81
2022/08/09 03:10:27;;;;;;;2.97;2.78;;;19.60;62.10;;;;;;4844181;29;20044;-82
2022/08/09 03:12:55;;;;;;;4.70;2.55;;;19.60;62.20;;;;;;4843601;29;20076;-82
2022/08/09 03:15:23;;;;;;;3.80;2.83;;;19.50;62.10;;;;;;4827558;29;20053;-83
2022/08/09 03:17:50;;;;;;;3.03;2.50;;;19.50;62.10;;;;;;4840450;29;20614;-82
2022/08/09 03:20:17;;;;;;;3.35;3.05;;;19.50;62.20;;;;;;4844790;29;20055;-81
2022/08/09 03:22:45;;;;;;;4.38;2.97;;;19.40;62.10;;;;;;4856994;29;20018;-82
2022/08/09 03:25:13;;;;;;;4.15;2.92;;;19.40;62.10;;;;;;4861239;29;20044;-82
2022/08/09 03:27:44;;;;;;;5.03;3.58;;;19.30;62.00;;;;;;4843552;29;20036;-82
2022/08/09 03:30:12;;;;;;;2.95;2.75;;;19.30;62.10;;;;;;4845167;29;20045;-83
2022/08/09 03:32:39;;;;;;;3.88;3.13;;;19.30;62.20;;;;;;4809306;29;20045;-81
2022/08/09 03:35:06;;;;;;;3.53;2.88;;;19.20;62.00;;;;;;4840628;29;20544;-81
2022/08/09 03:37:32;;;;;;;3.53;2.83;;;19.20;62.10;;;;;;4822402;29;20097;-82
2022/08/09 03:39:58;;;;;;;3.28;3.00;;;19.10;62.00;;;;;;4852366;29;20048;-81
2022/08/09 03:42:24;;;;;;;3.67;2.67;;;19.10;62.10;;;;;;4847636;29;20111;-83
2022/08/09 03:44:50;;;;;;;2.90;2.70;;;19.10;62.10;;;;;;4857070;29;20461;-82
2022/08/09 03:47:16;;;;;;;3.92;2.50;;;19.00;61.90;;;;;;4847419;29;20050;-81
2022/08/09 03:49:42;;;;;;;4.03;2.80;;;19.00;62.00;;;;;;4864657;29;20037;-82
2022/08/09 03:52:10;;;;;;;4.30;3.10;;;19.00;62.10;;;;;;4858327;29;20120;-81
2022/08/09 03:54:38;;;;;;;4.45;2.80;;;19.00;62.10;;;;;;4848838;29;20040;-81
2022/08/09 03:57:07;;;;;;;4.18;2.85;;;18.90;62.00;;;;;;4860329;29;20085;-82
2022/08/09 03:59:34;;;;;;;3.55;2.78;;;18.90;62.00;;;;;;4842415;29;20347;-80
2022/08/09 04:02:00;;;;;;;2.78;2.50;;;18.90;62.10;;;;;;4824662;29;20037;-81
2022/08/09 04:04:27;;;;;;;3.28;2.95;;;18.80;61.90;;;;;;4865787;29;20414;-82
2022/08/09 04:06:53;;;;;;;3.45;2.83;;;18.80;62.00;;;;;;4860991;29;20038;-81
2022/08/09 04:09:19;;;;;;;2.88;2.67;;;18.80;62.00;;;;;;4848501;29;20049;-82
2022/08/09 04:12:00;;;;;;;3.58;2.63;;;18.80;62.00;;;;;;4870540;29;20275;-81
2022/08/09 04:14:26;;;;;;;3.67;2.65;;;18.70;62.00;;;;;;4882069;29;20109;-82
2022/08/09 04:16:53;;;;;;;4.60;2.92;;;18.70;61.90;;;;;;4847898;29;20026;-81
2022/08/09 04:19:19;;;;;;;3.28;2.80;;;18.60;61.80;;;;;;4846157;29;20040;-81
2022/08/09 04:21:45;;;;;;;5.75;3.30;;;18.60;61.90;;;;;;4859540;29;20029;-82
2022/08/09 04:24:12;;;;;;;2.92;2.40;;;18.60;61.90;;;;;;4827963;29;20045;-80
2022/08/09 04:26:37;;;;;;;4.28;3.22;;;18.60;62.00;;;;;;4859096;29;20045;-81
2022/08/09 04:29:04;;;;;;;4.60;2.80;;;18.50;61.90;;;;;;4824949;29;20060;-81
2022/08/09 04:31:29;;;;;;;3.25;2.95;;;18.50;61.90;;;;;;4855799;29;20041;-80
2022/08/09 04:33:57;;;;;;;2.90;2.35;;;18.40;61.80;;;;;;4840186;29;20109;-81
2022/08/09 04:36:30;;;;;;;5.50;3.10;;;18.40;61.90;;;;;;4840187;29;20025;-81
2022/08/09 04:38:59;;;;;;;3.70;2.92;;;18.40;62.00;;;;;;4836495;29;20041;-82
2022/08/09 04:41:27;;;;;;;3.50;2.83;;;18.30;61.80;;;;;;4860255;29;20460;-82
2022/08/09 04:43:53;;;;;;;3.10;2.63;;;18.30;61.90;;;;;;4861195;29;20052;-82
2022/08/09 04:46:21;;;;;;;3.38;2.85;;;18.30;61.90;;;;;;4865330;29;20033;-81
2022/08/09 04:48:47;;;;;;;3.63;2.50;;;18.20;61.80;;;;;;4832379;29;20048;-81
2022/08/09 04:51:13;;;;;;;3.28;2.85;;;18.20;61.80;;;;;;4832580;29;20117;-83
2022/08/09 04:53:39;;;;;;;4.03;3.45;;;18.10;61.70;;;;;;4829936;29;20129;-83
2022/08/09 04:56:05;;;;;;;4.43;2.92;;;18.10;61.80;;;;;;4855416;29;20097;-81
2022/08/09 04:58:32;;;;;;;3.55;2.97;;;18.10;61.80;;;;;;4840031;29;20017;-81
2022/08/09 05:01:00;;;;;;;3.28;2.78;;;18.10;61.90;;;;;;4809825;29;20037;-81
2022/08/09 05:03:26;;;;;;;3.65;2.63;;;18.00;61.70;;;;;;4831707;29;20052;-82
2022/08/09 05:05:54;;;;;;;3.58;3.28;;;18.00;61.80;;;;;;4840275;29;20088;-82
2022/08/09 05:08:20;;;;;;;3.38;2.80;;;18.00;61.80;;;;;;4827029;29;20037;-83
2022/08/09 05:10:46;;;;;;;3.50;3.20;;;17.90;61.70;;;;;;4836614;29;20515;-83
2022/08/09 05:13:12;;;;;;;3.30;2.88;;;17.90;61.70;;;;;;4857066;29;20029;-83
2022/08/09 05:15:38;;;;;;;4.72;2.88;;;17.90;61.70;;;;;;4824721;29;20042;-84
2022/08/09 05:18:04;;;;;;;2.95;2.75;;;17.90;61.70;;;;;;4838560;29;20024;-83
2022/08/09 05:20:32;;;;;;;3.30;3.00;;;17.90;61.70;;;;;;4841926;29;20283;-81
2022/08/09 05:22:59;;;;;;;3.70;3.13;;;17.90;61.70;;;;;;4856876;29;20041;-87
2022/08/09 05:25:26;;;;;;;3.03;2.83;;;17.90;61.70;;;;;;4840521;29;20189;-86
2022/08/09 05:27:52;;;;;;;3.25;2.95;;;17.80;61.60;;;;;;4866368;29;20029;-93
2022/08/09 05:30:18;;;;;;;3.70;3.40;;;17.80;61.60;;;;;;4866480;29;20029;-85
2022/08/09 05:32:45;;;;;;;3.03;2.75;;;17.80;61.60;;;;;;4864348;29;20108;-87
2022/08/09 05:35:11;;;;;;;4.60;3.85;;;17.80;61.70;;;;;;4828958;29;20045;-87
2022/08/09 05:37:37;;;;;;;4.07;2.95;;;17.80;61.70;;;;;;4854097;29;20033;-87
2022/08/09 05:40:05;;;;;;;4.53;3.42;;;17.80;61.70;;;;;;4831135;29;20038;-93
2022/08/09 05:42:31;;;;;;;4.75;2.97;;;17.90;61.90;;;;;;4821452;29;20025;-85
2022/08/09 05:44:57;;;;;;;6.07;3.03;;;17.90;61.80;;;;;;4839494;29;20038;-86
2022/08/09 05:47:24;;;;;;;3.10;2.80;;;17.90;61.70;;;;;;4822141;29;20046;-87
2022/08/09 05:49:52;;;;;;;3.40;3.10;;;17.90;61.70;;;;;;4843194;29;20029;-88
2022/08/09 05:52:18;;;;;;;3.78;2.80;;;18.00;61.80;;;;;;4826359;29;20100;-87
2022/08/09 05:54:44;;;;;;;4.53;2.72;;;18.10;61.90;;;;;;4822548;29;20045;-83
2022/08/09 05:57:10;;;;;;;3.90;3.35;;;18.20;62.00;;;;;;4834871;29;20071;-83
2022/08/09 05:59:36;;;;;;;4.03;3.50;;;18.20;61.90;;;;;;4833879;29;20117;-87
2022/08/09 06:02:02;;;;;;;3.63;3.15;;;18.30;62.00;;;;;;4839464;29;20052;-85
2022/08/09 06:04:28;;;;;;;4.13;3.70;;;18.40;62.20;;;;;;4855948;29;20049;-84
2022/08/09 06:06:54;;;;;;;3.25;2.95;;;18.60;63.10;;;;;;4854059;29;20006;-83
2022/08/09 06:09:20;;;;;;;4.68;3.42;;;18.70;64.30;;;;;;4835039;29;20045;-83
2022/08/09 06:11:47;;;;;;;5.03;4.03;;;19.00;65.10;;;;;;4836855;29;20026;-84
2022/08/09 06:14:16;;;;;;;5.82;3.40;;;19.10;64.60;;;;;;4855060;29;20132;-83
2022/08/09 06:16:43;;;;;;;4.63;3.42;;;19.30;64.50;;;;;;4854962;29;20516;-85
2022/08/09 06:19:09;;;;;;;4.18;3.70;;;19.50;64.30;;;;;;4839634;29;20017;-87
2022/08/09 06:21:35;;;;;;;4.68;3.45;;;19.70;63.70;;;;;;4838090;29;20066;-86
2022/08/09 06:24:02;;;;;;;3.88;3.53;;;20.00;63.30;;;;;;4838919;29;20191;-84
2022/08/09 06:26:28;;;;;;;3.83;3.53;;;20.20;62.70;;;;;;4839976;29;20046;-80
2022/08/09 06:28:56;;;;;;;3.55;3.25;;;20.40;62.50;;;;;;4859515;29;20076;-81
2022/08/09 06:31:23;;;;;;;6.57;3.42;;;20.60;62.20;;;;;;4855804;29;20053;-85
2022/08/09 06:33:49;;;;;;;4.60;2.78;;;20.90;62.00;;;;;;4842182;29;20485;-81
2022/08/09 06:36:15;;;;;;;3.80;3.08;;;21.10;61.40;;;;;;4851266;29;20049;-82
2022/08/09 06:38:43;;;;;;;5.00;3.30;;;21.40;61.20;;;;;;4834081;29;20505;-84
2022/08/09 06:41:10;;;;;;;4.38;3.17;;;21.60;60.70;;;;;;4838855;29;20037;-82
2022/08/09 06:43:35;;;;;;;3.85;2.90;;;22.00;60.40;;;;;;4855857;29;20078;-84
2022/08/09 06:46:02;;;;;;;4.05;2.53;;;22.30;59.80;;;;;;4839737;29;20509;-83
2022/08/09 06:48:28;;;;;;;3.45;2.70;;;22.60;59.40;;;;;;4838284;29;20038;-85
2022/08/09 06:50:54;;;;;;;6.50;2.78;;;22.90;58.90;;;;;;4857445;29;20309;-94
2022/08/09 06:53:20;;;;;;;3.55;2.35;;;23.20;58.40;;;;;;4857619;29;20034;-89
2022/08/09 06:55:46;;;;;;;5.72;3.30;;;23.50;58.00;;;;;;4858754;29;20045;-88
2022/08/09 06:58:12;;;;;;;6.40;2.58;;;23.80;57.70;;;;;;4858988;29;20026;-86
2022/08/09 07:00:38;;;;;;;3.45;2.60;;;24.10;57.40;;;;;;4860008;29;20093;-87
2022/08/09 07:03:05;;;;;;;8.90;3.40;;;24.40;57.00;;;;;;4860646;29;20029;-86
2022/08/09 07:05:31;;;;;;;6.70;2.70;;;24.70;56.60;;;;;;4859547;29;20056;-87
2022/08/09 07:07:59;;;;;;;3.33;2.40;;;25.10;56.20;;;;;;4844238;29;20124;-85
2022/08/09 07:10:25;;;;;;;2.95;2.45;;;25.30;55.50;;;;;;4860933;29;20125;-83
2022/08/09 07:12:51;;;;;;;4.00;2.63;;;25.50;54.90;;;;;;4858160;29;20446;-85
2022/08/09 07:15:16;;;;;;;3.20;2.47;;;25.70;54.50;;;;;;4862304;29;20053;-83
2022/08/09 07:17:42;;;;;;;7.85;3.35;;;25.90;54.00;;;;;;4863008;29;20444;-86
2022/08/09 07:20:09;;;;;;;3.90;3.00;;;26.00;53.60;;;;;;4866427;29;20041;-86
2022/08/09 07:22:35;;;;;;;5.75;2.97;;;26.20;53.20;;;;;;4857997;29;20033;-86
2022/08/09 07:25:03;;;;;;;5.47;2.90;;;26.30;52.80;;;;;;4864797;29;20082;-85
2022/08/09 07:27:29;;;;;;;3.83;3.00;;;26.60;52.40;;;;;;4857019;29;20316;-86
2022/08/09 07:29:55;;;;;;;5.88;3.15;;;26.80;52.00;;;;;;4857778;29;20033;-86
2022/08/09 07:32:22;;;;;;;5.57;2.95;;;27.00;51.40;;;;;;4838668;29;20120;-86
2022/08/09 07:34:47;;;;;;;6.85;3.80;;;27.20;50.90;;;;;;4839607;29;20511;-86
2022/08/09 07:37:13;;;;;;;7.10;3.25;;;27.50;50.40;;;;;;4854477;29;20042;-86
2022/08/09 07:39:39;;;;;;;9.07;3.55;;;27.60;49.80;;;;;;4841825;29;20032;-86
2022/08/09 07:42:05;;;;;;;6.60;2.75;;;27.70;49.40;;;;;;4840645;29;20030;-87
2022/08/09 07:44:31;;;;;;;13.68;3.03;;;27.80;49.20;;;;;;4857981;29;20237;-86
2022/08/09 07:46:57;;;;;;;6.20;2.97;;;27.70;49.10;;;;;;4853594;29;20042;-85
2022/08/09 07:49:23;;;;;;;8.00;3.13;;;27.60;49.20;;;;;;4824221;29;20059;-87
2022/08/09 07:51:49;;;;;;;9.73;3.28;;;27.50;49.40;;;;;;4855435;29;20063;-88
2022/08/09 07:54:15;;;;;;;6.15;2.65;;;27.30;49.50;;;;;;4860255;29;20045;-91
2022/08/09 07:56:42;;;;;;;5.70;2.75;;;27.20;49.80;;;;;;4855665;29;20039;-89
2022/08/09 07:59:08;;;;;;;5.25;3.08;;;27.00;50.00;;;;;;4858242;29;20033;-85
2022/08/09 08:01:34;;;;;;;5.07;2.72;;;26.90;50.10;;;;;;4838608;29;20566;-88
2022/08/09 08:04:01;;;;;;;7.10;3.03;;;26.80;50.10;;;;;;4837574;29;20089;-89
2022/08/09 08:06:28;;;;;;;4.43;3.05;;;26.60;50.10;;;;;;4856983;29;20037;-88
2022/08/09 08:08:54;;;;;;;5.80;2.90;;;26.60;50.00;;;;;;4858852;29;20033;-86
2022/08/09 08:11:20;;;;;;;4.35;2.30;;;26.60;50.00;;;;;;4838589;29;20040;-88
2022/08/09 08:13:46;;;;;;;5.55;2.40;;;26.60;50.00;;;;;;4843038;29;20038;-90
2022/08/09 08:16:13;;;;;;;8.05;2.88;;;26.60;49.70;;;;;;4838933;29;20267;-85
2022/08/09 08:18:39;;;;;;;6.20;2.78;;;26.70;49.40;;;;;;4835259;29;20080;-83
2022/08/09 08:21:05;;;;;;;5.35;3.00;;;26.70;49.10;;;;;;4837940;29;20036;-84
2022/08/09 08:23:31;;;;;;;7.57;3.15;;;26.70;49.30;;;;;;4825686;29;20025;-90
2022/08/09 08:25:59;;;;;;;6.53;2.80;;;26.60;49.50;;;;;;4843153;29;20096;-95
2022/08/09 08:28:25;;;;;;;6.05;2.28;;;26.40;49.70;;;;;;4842665;29;20032;-92
2022/08/09 08:30:50;;;;;;;5.25;2.60;;;26.20;50.10;;;;;;4843693;29;20037;-90
2022/08/09 08:33:16;;;;;;;11.80;3.28;;;26.10;50.50;;;;;;4838322;29;20037;-92
2022/08/09 08:35:45;;;;;;;7.97;2.55;;;25.90;50.70;;;;;;4814390;29;20052;-92
2022/08/09 08:38:11;;;;;;;8.35;2.78;;;25.80;51.00;;;;;;4820754;29;20040;-88
2022/08/09 08:40:37;;;;;;;21.13;3.45;;;25.70;51.20;;;;;;4832376;29;20416;-86
2022/08/09 08:43:04;;;;;;;9.63;3.17;;;25.60;51.30;;;;;;4828124;29;20025;-86
2022/08/09 08:45:41;;;;;;;9.93;3.00;;;25.50;51.30;;;;;;4864430;29;20036;-86
2022/08/09 08:48:08;;;;;;;12.10;3.20;;;25.40;51.40;;;;;;4867637;29;21167;-85
2022/08/09 08:50:34;;;;;;;9.65;3.80;;;25.30;51.50;;;;;;4851682;29;20041;-83
2022/08/09 08:53:01;;;;;;;4.57;2.75;;;25.20;51.50;;;;;;4858625;29;20045;-84
2022/08/09 08:55:27;;;;;;;5.50;3.28;;;25.20;51.60;;;;;;4829277;29;20041;-85
2022/08/09 08:57:54;;;;;;;4.95;2.72;;;25.20;51.70;;;;;;4838522;29;20043;-83
2022/08/09 09:00:20;;;;;;;6.80;2.90;;;25.20;51.70;;;;;;4846365;29;20774;-84
2022/08/09 09:02:49;;;;;;;6.43;2.95;;;25.20;51.70;;;;;;4839073;29;20033;-85
2022/08/09 09:05:21;;;;;;;5.35;2.42;;;25.20;51.60;;;;;;4853349;29;20270;-87
2022/08/09 09:07:49;;;;;;;4.45;2.50;;;25.20;51.50;;;;;;4862966;29;20057;-93
2022/08/09 09:10:16;;;;;;;5.47;3.17;;;25.30;51.40;;;;;;4866591;29;20025;-86
2022/08/09 09:12:45;;;;;;;12.02;3.13;;;25.30;51.30;;;;;;4845028;29;20041;-87
2022/08/09 09:15:11;;;;;;;6.47;3.20;;;25.40;51.20;;;;;;4878404;29;20044;-88
2022/08/09 09:17:37;;;;;;;7.25;2.67;;;25.50;51.20;;;;;;4876214;29;20097;-88
2022/08/09 09:20:11;;;;;;;4.50;2.65;;;25.50;51.10;;;;;;4852833;29;20044;-86
2022/08/09 09:22:52;;;;;;;4.10;2.45;;;25.60;51.00;;;;;;4846010;29;20030;-86
2022/08/09 09:25:40;;;;;;;7.05;2.88;;;25.70;50.80;;;;;;4842239;29;20380;-86
2022/08/09 09:28:08;;;;;;;5.97;2.75;;;25.80;50.80;;;;;;4838470;29;20104;-86
2022/08/09 09:30:54;;;;;;;7.35;2.90;;;25.80;50.70;;;;;;4855447;29;20026;-88
2022/08/09 09:33:29;;;;;;;9.23;3.15;;;25.80;50.40;;;;;;4821696;29;20819;-87
2022/08/09 09:36:02;;;;;;;4.75;2.50;;;25.90;50.30;;;;;;4855638;29;20037;-87
2022/08/09 09:38:49;;;;;;;4.25;2.42;;;26.00;50.20;;;;;;4853923;29;20273;-87
2022/08/09 09:41:25;;;;;;;9.25;2.67;;;26.00;50.60;;;;;;4838426;29;20053;-87
2022/08/09 09:43:52;;;;;;;6.68;2.63;;;26.10;50.00;;;;;;4851864;29;20037;-88
2022/08/09 09:46:18;;;;;;;8.02;2.97;;;26.20;50.00;;;;;;4852265;29;20117;-88
2022/08/09 09:48:59;;;;;;;5.88;2.58;;;26.20;49.80;;;;;;4837038;29;20396;-88
2022/08/09 09:51:28;;;;;;;5.43;2.08;;;26.30;49.60;;;;;;4837368;29;20047;-88
2022/08/09 09:54:21;;;;;;;4.43;2.40;;;26.40;49.70;;;;;;4836714;29;20038;-84
2022/08/09 09:56:49;;;;;;;4.88;2.67;;;26.50;49.60;;;;;;4837023;29;20254;-84
2022/08/09 09:59:23;;;;;;;5.40;2.58;;;26.50;49.50;;;;;;4835354;29;20041;-85
2022/08/09 10:01:59;;;;;;;6.80;2.45;;;26.60;49.20;;;;;;4835228;29;20036;-82
2022/08/09 10:04:25;;;;;;;5.22;2.33;;;26.70;49.10;;;;;;4848996;29;20033;-83
2022/08/09 10:06:51;;;;;;;6.07;2.45;;;26.70;49.00;;;;;;4823245;29;20093;-83
2022/08/09 10:09:17;;;;;;;6.22;2.70;;;26.80;49.00;;;;;;4839348;29;20093;-82
2022/08/09 10:11:44;;;;;;;3.75;2.13;;;26.90;48.90;;;;;;4854793;29;20094;-83
2022/08/09 10:14:25;;;;;;;14.65;2.53;;;27.00;48.90;;;;;;4851962;29;20114;-81
2022/08/09 10:16:52;;;;;;;4.68;2.50;;;27.10;48.80;;;;;;4837514;29;20044;-83
2022/08/09 10:19:18;;;;;;;3.83;2.58;;;27.20;48.80;;;;;;4858609;29;20139;-82
2022/08/09 10:21:49;;;;;;;4.88;2.22;;;27.30;48.70;;;;;;4837116;29;20159;-84
2022/08/09 10:24:18;;;;;;;4.97;1.98;;;27.40;48.60;;;;;;4834337;29;20038;-83
2022/08/09 10:26:47;;;;;;;6.43;1.90;;;27.50;48.50;;;;;;4840832;29;20293;-83
2022/08/09 10:29:13;;;;;;;2.95;2.00;;;27.60;48.30;;;;;;4853178;29;20033;-81
2022/08/09 10:31:40;;;;;;;4.95;2.00;;;27.70;48.10;;;;;;4853219;29;20039;-82
2022/08/09 10:34:10;;;;;;;2.30;2.00;;;27.80;47.90;;;;;;4821893;29;20033;-84
2022/08/09 10:36:37;;;;;;;3.67;1.85;;;27.80;47.70;;;;;;4851667;29;20041;-82
2022/08/09 10:39:03;;;;;;;3.40;1.50;;;27.90;47.60;;;;;;4853548;29;20099;-84
2022/08/09 10:41:29;;;;;;;3.35;1.80;;;28.00;47.50;;;;;;4824209;29;20096;-83
2022/08/09 10:43:56;;;;;;;4.55;2.00;;;28.00;47.40;;;;;;4836592;29;20446;-83
2022/08/09 10:46:31;;;;;;;3.65;1.88;;;28.10;47.30;;;;;;4824239;29;20049;-84
2022/08/09 10:49:17;;;;;;;3.58;1.48;;;28.10;47.20;;;;;;4821219;29;20105;-82
2022/08/09 10:52:08;;;;;;;3.47;2.13;;;28.20;47.20;;;;;;4838332;29;20037;-81
2022/08/09 10:54:34;;;;;;;5.13;1.83;;;28.30;46.90;;;;;;4857313;29;20477;-82
2022/08/09 10:57:09;;;;;;;2.97;1.80;;;28.40;47.00;;;;;;4856007;29;20639;-83
2022/08/09 10:59:36;;;;;;;3.45;1.95;;;28.40;46.60;;;;;;4822665;29;20049;-84
2022/08/09 11:02:07;;;;;;;6.90;2.75;;;28.50;46.60;;;;;;4839670;29;20033;-82
2022/08/09 11:04:34;;;;;;;4.07;2.10;;;28.50;46.40;;;;;;4840690;29;20045;-82
2022/08/09 11:07:02;;;;;;;4.32;1.80;;;28.50;46.30;;;;;;4856716;29;20044;-82
2022/08/09 11:09:38;;;;;;;4.47;2.03;;;28.60;46.10;;;;;;4839583;29;20187;-82
2022/08/09 11:12:08;;;;;;;4.03;1.75;;;28.70;46.00;;;;;;4856373;29;20094;-82
2022/08/09 11:14:37;;;;;;;4.15;1.70;;;28.70;45.90;;;;;;4855585;29;20159;-81
2022/08/09 11:17:12;;;;;;;2.85;1.70;;;28.80;45.80;;;;;;4856202;29;20305;-83
2022/08/09 11:20:08;;;;;;;2.25;1.80;;;28.80;45.60;;;;;;4839221;29;20450;-82
2022/08/09 11:22:40;;;;;;;3.10;1.65;;;28.90;45.50;;;;;;4837714;29;20038;-88
2022/08/09 11:25:10;;;;;;;3.25;1.60;;;29.00;45.50;;;;;;4841566;29;20037;-89
2022/08/09 11:27:40;;;;;;;4.30;1.63;;;29.00;45.30;;;;;;4847583;29;20042;-86
2022/08/09 11:30:10;;;;;;;2.80;1.80;;;29.10;45.10;;;;;;4861892;29;20925;-86
2022/08/09 11:33:02;;;;;;;4.18;1.58;;;29.10;44.80;;;;;;4823369;29;20387;-87
2022/08/09 11:35:42;;;;;;;2.35;1.77;;;29.20;44.70;;;;;;4828714;29;20041;-87
2022/08/09 11:38:24;;;;;;;3.03;1.60;;;29.30;44.70;;;;;;4837225;29;20034;-87
2022/08/09 11:40:51;;;;;;;2.38;1.63;;;29.30;44.50;;;;;;4821062;29;20034;-87
2022/08/09 11:43:38;;;;;;;4.03;1.98;;;29.40;44.50;;;;;;4857150;29;20397;-85
2022/08/09 11:46:05;;;;;;;2.33;1.52;;;29.50;44.10;;;;;;4843185;29;20037;-85
2022/08/09 11:48:44;;;;;;;2.10;1.35;;;29.50;44.20;;;;;;4852610;29;20481;-86
2022/08/09 11:51:10;;;;;;;2.60;1.80;;;29.60;44.00;;;;;;4838069;29;20038;-84
2022/08/09 11:53:40;;;;;;;3.63;1.80;;;29.70;43.90;;;;;;4825377;29;20143;-83
2022/08/09 11:56:13;;;;;;;4.40;2.15;;;29.80;43.70;;;;;;4841591;29;20046;-84
2022/08/09 11:58:40;;;;;;;2.28;1.73;;;29.90;43.50;;;;;;4836788;29;20847;-84
2022/08/09 12:01:06;;;;;;;1.55;1.35;;;29.90;43.30;;;;;;4854705;29;20395;-84
2022/08/09 12:03:32;;;;;;;3.00;1.55;;;30.00;43.30;;;;;;4837997;29;20033;-84
2022/08/09 12:06:10;;;;;;;2.50;1.40;;;30.10;43.80;;;;;;4821979;29;20038;-87
2022/08/09 12:08:36;;;;;;;1.67;1.38;;;30.10;42.90;;;;;;4807836;29;20081;-86
2022/08/09 12:11:02;;;;;;;3.53;2.00;;;30.30;42.80;;;;;;4841057;29;20057;-87
2022/08/09 12:13:30;;;;;;;2.08;1.58;;;30.40;42.60;;;;;;4822996;29;20037;-89
2022/08/09 12:16:04;;;;;;;5.03;1.70;;;30.40;42.30;;;;;;4822904;29;20041;-84
2022/08/09 12:18:32;;;;;;;2.92;1.48;;;30.50;42.10;;;;;;4839767;29;20716;-88
2022/08/09 12:20:59;;;;;;;1.50;1.35;;;30.50;42.10;;;;;;4824159;29;20040;-88
2022/08/09 12:23:25;;;;;;;1.90;1.63;;;30.60;42.10;;;;;;4837285;29;20025;-87
2022/08/09 12:25:55;;;;;;;2.60;1.27;;;30.80;42.00;;;;;;4827234;29;20029;-83
2022/08/09 12:28:23;;;;;;;3.10;1.83;;;30.90;41.70;;;;;;4843364;29;20030;-85
2022/08/09 12:30:49;;;;;;;3.03;1.83;;;31.10;41.50;;;;;;4858859;29;20029;-84
2022/08/09 12:33:16;;;;;;;2.95;1.40;;;31.20;41.30;;;;;;4811307;29;20045;-87
2022/08/09 12:35:43;;;;;;;2.45;1.98;;;31.30;41.10;;;;;;4837589;29;20142;-85
2022/08/09 12:38:24;;;;;;;3.65;1.75;;;31.40;41.00;;;;;;4855860;29;20040;-88
2022/08/09 12:40:51;;;;;;;7.68;2.30;;;31.40;40.80;;;;;;4838278;29;20041;-86
2022/08/09 12:43:22;;;;;;;3.95;1.42;;;31.50;40.80;;;;;;4841001;29;20315;-90
2022/08/09 12:45:49;;;;;;;5.35;1.88;;;31.60;40.60;;;;;;4839471;29;20085;-85
2022/08/09 12:48:16;;;;;;;5.72;1.83;;;31.70;40.60;;;;;;4827663;29;20041;-86
2022/08/09 12:50:43;;;;;;;3.75;2.05;;;31.70;40.40;;;;;;4842731;29;20056;-85
2022/08/09 12:53:37;;;;;;;3.90;2.20;;;31.80;40.30;;;;;;4860113;29;20691;-86
2022/08/09 12:56:21;;;;;;;12.55;2.13;;;31.90;40.00;;;;;;4846452;29;20416;-85
2022/08/09 12:59:13;;;;;;;8.10;2.30;;;31.90;39.90;;;;;;4819764;29;20034;-85
2022/08/09 13:01:43;;;;;;;4.13;1.90;;;32.00;39.90;;;;;;4842179;29;20030;-85
2022/08/09 13:04:11;;;;;;;5.80;1.60;;;32.10;40.00;;;;;;4827409;29;20040;-85
2022/08/09 13:06:40;;;;;;;7.75;1.55;;;32.20;39.90;;;;;;4859058;29;20033;-85
2022/08/09 13:09:21;;;;;;;2.65;1.90;;;32.30;39.70;;;;;;4839157;29;20454;-85
2022/08/09 13:11:49;;;;;;;5.63;2.33;;;32.30;39.50;;;;;;4838953;29;20029;-86
2022/08/09 13:14:25;;;;;;;6.55;1.83;;;32.30;39.30;;;;;;4841640;29;20049;-89
2022/08/09 13:16:53;;;;;;;2.05;1.40;;;32.40;39.10;;;;;;4836789;29;20033;-87
2022/08/09 13:19:41;;;;;;;7.45;1.90;;;32.50;39.10;;;;;;4855599;29;20029;-86
2022/08/09 13:22:15;;;;;;;2.95;1.90;;;32.60;38.70;;;;;;4836725;29;20112;-87
2022/08/09 13:24:47;;;;;;;3.13;1.50;;;32.70;38.70;;;;;;4841165;29;20109;-85
2022/08/09 13:27:35;;;;;;;3.08;1.67;;;32.90;38.60;;;;;;4856499;29;20116;-86
2022/08/09 13:30:06;;;;;;;3.38;1.40;;;33.10;38.30;;;;;;4856195;29;20060;-87
2022/08/09 13:32:45;;;;;;;6.22;2.25;;;33.30;38.30;;;;;;4835651;29;20052;-86
2022/08/09 13:35:14;;;;;;;8.70;2.05;;;33.60;38.00;;;;;;4820799;29;20509;-85
2022/08/09 13:37:40;;;;;;;5.55;1.75;;;33.80;37.90;;;;;;4833193;29;20029;-89
2022/08/09 13:40:08;;;;;;;3.40;1.33;;;33.90;37.40;;;;;;4823390;29;20399;-87
2022/08/09 13:42:35;;;;;;;4.93;1.63;;;34.00;37.10;;;;;;4842798;29;20493;-90
2022/08/09 13:45:02;;;;;;;3.30;1.65;;;34.00;36.90;;;;;;4858755;29;20041;-88
2022/08/09 13:47:28;;;;;;;3.90;1.58;;;33.90;36.90;;;;;;4838223;29;20071;-86
2022/08/09 13:49:54;;;;;;;3.65;1.80;;;33.60;37.00;;;;;;4849905;29;20346;-87